Union, WV

10:08 PM EDT on April 24, 2015 (GMT -0400)
kc8ysl kc8zec Organ Cave | | Change Station
CLOSE
Current Station
Personal Weather Station
Location: Organ Cave, WV
Elevation: 2310 ft
Nearby Weather Stations

Elev 2310 ft 37.71 °N, 80.42 °W | Updated 9 seconds ago

Partly Cloudy
Partly Cloudy
37.8 °F
Feels Like 38 °F
N
0.0
Wind Variable Wind from WNW
Gusts 0.0 mph

Today
High -- | Low -- °F
--% Chance of Precip.
Yesterday
High -- | Low -- °F
Precip. -- in
6:35 AM 8:05 PM
Waxing Crescent, 41% visible
Pressure 29.99 in
Visibility 10.0 miles
Clouds Clear
Windchill 38 °F
Dew Point 29 °F
Humidity 69%
Rainfall in
Snow Depth Not available.
UV 0 out of 12
Pollen 10.50 out of 12
Air Quality Not available.
Flu Activity Sporadic
METAR KLWB 250155Z AUTO 13003KT 10SM CLR 08/M06 A2999 RMK AO2 T00751059

More Conditions Fewer Conditions

Pressure 29.99 in
Visibility 10.0 miles
Clouds Clear
Windchill 38 °F
Dew Point 29 °F
Humidity 69%
Rainfall in
Snow Depth Not available.
UV 0 out of 12
Pollen 10.50 out of 12
Air Quality Not available.
Flu Activity Sporadic
METAR KLWB 250155Z AUTO 13003KT 10SM CLR 08/M06 A2999 RMK AO2 T00751059

More Conditions Fewer Conditions

10-Day Weather Forecast

Almanac

Astronomy

Apr. 24, 2015 Rise Set
Actual Time
Civil Twilight
Nautical Twilight
Astronomical Twilight
Moon
Length of Visible Light
Length of Day
Tomorrow will be .
, % of the Moon is Illuminated

Today's Extremes

State Highs State Lows

Community

WunderPhotos

Upload Photos

1,816,566 photos uploaded!

WunderBlogs® & News

Nearby

Air Quality

  Air Quality AQ Index Pollutant
Not available.

Snow Depth

Station Depth Elevation

Earthquake Activity

City Distance Mag. Time & Date
Minimum magnitude displayed is 2.5.

Coastal Water Temperatures

Place Temperature

Stations

Nearby Weather Stations

Station Location Temp. Windchill Dew Point Humidity Wind Precip. Elev Updated Type